Time;durP1;ratioP1;P1;durP2;ratioP2;P2;SDS_P1;SDS_P2;PMS_P1;PMS_P2;Temp;Humidity;BMP_temperature;BMP_pressure;BME280_temperature;BME280_humidity;BME280_pressure;Samples;Min_cycle;Max_cycle;Signal;HPM_P1;HPM_P2
2022/04/13 00:00:23;;;;;;;;;;;;;;;;;;5062353;28;28341;-90
2022/04/13 00:02:48;;;;;;;;;;;;;;;;;;5086195;28;28441;-92
2022/04/13 00:05:13;;;;;;;;;;;;;;;;;;5084476;28;28443;-92
2022/04/13 00:07:38;;;;;;;;;;;;;;;;;;5096039;28;28382;-92
2022/04/13 00:10:03;;;;;;;;;;;;;;;;;;5075155;28;28313;-92
2022/04/13 00:12:29;;;;;;;;;;;;;;;;;;5096832;28;28296;-90
2022/04/13 00:14:54;;;;;;;;;;;;;;;;;;5065155;28;28392;-91
2022/04/13 00:17:19;;;;;;;;;;;;;;;;;;5057064;28;28400;-91
2022/04/13 00:19:44;;;;;;;;;;;;;;;;;;5092720;28;28728;-90
2022/04/13 00:22:09;;;;;;;;;;;;;;;;;;5077779;28;28418;-91
2022/04/13 00:24:34;;;;;;;;;;;;;;;;;;5065594;28;28546;-91
2022/04/13 00:26:59;;;;;;;;;;;;;;;;;;5096571;28;27791;-92
2022/04/13 00:29:25;;;;;;;;;;;;;;;;;;5076389;28;28476;-92
2022/04/13 00:31:53;;;;;;;;;;;;;;;;;;5077873;28;28536;-92
2022/04/13 00:34:18;;;;;;;;;;;;;;;;;;5069498;28;29828;-91
2022/04/13 00:36:43;;;;;;;;;;;;;;;;;;5058230;28;29097;-92
2022/04/13 00:39:08;;;;;;;;;;;;;;;;;;5088122;28;28389;-93
2022/04/13 00:41:33;;;;;;;;;;;;;;;;;;5076919;28;28553;-93
2022/04/13 00:43:59;;;;;;;;;;;;;;;;;;5092025;28;28501;-93
2022/04/13 00:46:24;;;;;;;;;;;;;;;;;;5067082;28;28542;-93
2022/04/13 00:48:49;;;;;;;;;;;;;;;;;;5066861;28;28357;-92
2022/04/13 00:51:14;;;;;;;;;;;;;;;;;;5084733;28;28527;-90
2022/04/13 00:53:39;;;;;;;;;;;;;;;;;;5074550;28;28505;-91
2022/04/13 00:56:05;;;;;;;;;;;;;;;;;;5074360;28;28472;-91
2022/04/13 00:58:30;;;;;;;;;;;;;;;;;;5061645;28;28788;-90
2022/04/13 01:00:55;;;;;;;;;;;;;;;;;;5091203;28;28261;-92
2022/04/13 01:03:20;;;;;;;;;;;;;;;;;;5063293;28;29968;-92
2022/04/13 01:05:45;;;;;;;;;;;;;;;;;;5092236;28;28300;-92
2022/04/13 01:08:11;;;;;;;;;;;;;;;;;;5070007;28;28607;-92
2022/04/13 01:10:36;;;;;;;;;;;;;;;;;;5074797;28;28338;-91
2022/04/13 01:13:01;;;;;;;;;;;;;;;;;;5074360;28;28443;-91
2022/04/13 01:15:26;;;;;;;;;;;;;;;;;;5055459;28;28407;-91
2022/04/13 01:17:53;;;;;;;;;;;;;;;;;;5056027;28;28519;-91
2022/04/13 01:20:22;;;;;;;;;;;;;;;;;;5083826;28;28342;-91
2022/04/13 01:22:47;;;;;;;;;;;;;;;;;;5075030;28;28572;-89
2022/04/13 01:25:12;;;;;;;;;;;;;;;;;;5093458;28;28563;-91
2022/04/13 01:27:37;;;;;;;;;;;;;;;;;;5071215;28;28562;-91
2022/04/13 01:30:02;;;;;;;;;;;;;;;;;;5064177;28;28401;-91
2022/04/13 01:32:27;;;;;;;;;;;;;;;;;;5076307;28;29874;-91
2022/04/13 01:34:53;;;;;;;;;;;;;;;;;;5075617;28;28346;-91
2022/04/13 01:37:18;;;;;;;;;;;;;;;;;;5092796;28;27802;-90
2022/04/13 01:39:43;;;;;;;;;;;;;;;;;;5075931;28;28533;-91
2022/04/13 01:42:08;;;;;;;;;;;;;;;;;;5091914;28;28635;-91
2022/04/13 01:44:34;;;;;;;;;;;;;;;;;;5075896;28;28402;-92
2022/04/13 01:46:59;;;;;;;;;;;;;;;;;;5057231;28;28398;-90
2022/04/13 01:49:24;;;;;;;;;;;;;;;;;;5055044;28;28481;-90
2022/04/13 01:51:49;;;;;;;;;;;;;;;;;;5058064;28;29995;-90
2022/04/13 01:54:14;;;;;;;;;;;;;;;;;;5074287;28;28487;-91
2022/04/13 01:56:39;;;;;;;;;;;;;;;;;;5073049;28;28238;-90
2022/04/13 01:59:04;;;;;;;;;;;;;;;;;;5074323;28;28514;-91
2022/04/13 02:01:31;;;;;;;;;;;;;;;;;;5081095;28;28545;-91
2022/04/13 02:03:56;;;;;;;;;;;;;;;;;;5073252;27;28584;-91
2022/04/13 02:06:21;;;;;;;;;;;;;;;;;;5075320;28;28550;-91
2022/04/13 02:08:46;;;;;;;;;;;;;;;;;;5076047;28;28366;-90
2022/04/13 02:11:11;;;;;;;;;;;;;;;;;;5069885;28;29489;-90
2022/04/13 02:13:37;;;;;;;;;;;;;;;;;;5093001;28;28018;-90
2022/04/13 02:16:02;;;;;;;;;;;;;;;;;;5073952;28;28448;-92
2022/04/13 02:18:27;;;;;;;;;;;;;;;;;;5044020;27;28316;-92
2022/04/13 02:20:52;;;;;;;;;;;;;;;;;;5091781;28;29248;-91
2022/04/13 02:23:17;;;;;;;;;;;;;;;;;;5074822;28;28357;-91
2022/04/13 02:25:42;;;;;;;;;;;;;;;;;;5057577;28;28424;-91
2022/04/13 02:28:07;;;;;;;;;;;;;;;;;;5072272;28;28611;-91
2022/04/13 02:30:32;;;;;;;;;;;;;;;;;;5096296;28;28402;-92
2022/04/13 02:32:58;;;;;;;;;;;;;;;;;;5088268;28;28559;-91
2022/04/13 02:35:23;;;;;;;;;;;;;;;;;;5057519;28;28260;-91
2022/04/13 02:37:48;;;;;;;;;;;;;;;;;;5058154;28;28524;-92
2022/04/13 02:40:13;;;;;;;;;;;;;;;;;;5059685;28;29739;-91
2022/04/13 02:42:38;;;;;;;;;;;;;;;;;;5061143;28;29209;-91
2022/04/13 02:45:03;;;;;;;;;;;;;;;;;;5070941;28;28487;-92
2022/04/13 02:47:28;;;;;;;;;;;;;;;;;;5066022;28;28531;-93
2022/04/13 02:49:54;;;;;;;;;;;;;;;;;;5073872;28;30014;-95
2022/04/13 02:52:19;;;;;;;;;;;;;;;;;;5101520;28;27813;-94
2022/04/13 02:54:44;;;;;;;;;;;;;;;;;;5073071;28;28490;-91
2022/04/13 02:57:09;;;;;;;;;;;;;;;;;;5067080;28;28615;-92
2022/04/13 02:59:35;;;;;;;;;;;;;;;;;;5093163;28;29568;-91
2022/04/13 03:02:00;;;;;;;;;;;;;;;;;;5072908;28;29354;-91
2022/04/13 03:04:25;;;;;;;;;;;;;;;;;;5057656;28;28604;-91
2022/04/13 03:06:50;;;;;;;;;;;;;;;;;;5076096;28;28518;-91
2022/04/13 03:09:15;;;;;;;;;;;;;;;;;;5075456;28;29474;-92
2022/04/13 03:11:40;;;;;;;;;;;;;;;;;;5072168;28;29669;-91
2022/04/13 03:14:05;;;;;;;;;;;;;;;;;;5061261;28;28333;-91
2022/04/13 03:16:31;;;;;;;;;;;;;;;;;;5060722;28;28473;-93
2022/04/13 03:18:56;;;;;;;;;;;;;;;;;;5064692;28;31141;-89
2022/04/13 03:21:21;;;;;;;;;;;;;;;;;;5056666;28;28414;-90
2022/04/13 03:23:46;;;;;;;;;;;;;;;;;;5079175;27;28517;-89
2022/04/13 03:26:11;;;;;;;;;;;;;;;;;;5056570;28;28686;-90
2022/04/13 03:28:36;;;;;;;;;;;;;;;;;;5071204;27;30094;-90
2022/04/13 03:31:01;;;;;;;;;;;;;;;;;;5081558;28;28401;-89
2022/04/13 03:33:26;;;;;;;;;;;;;;;;;;5058981;28;28616;-90
2022/04/13 03:35:52;;;;;;;;;;;;;;;;;;5074571;27;28370;-89
2022/04/13 03:38:17;;;;;;;;;;;;;;;;;;5055951;28;29949;-89
2022/04/13 03:40:42;;;;;;;;;;;;;;;;;;5072592;28;28431;-89
2022/04/13 03:43:07;;;;;;;;;;;;;;;;;;5058749;28;28466;-90
2022/04/13 03:45:32;;;;;;;;;;;;;;;;;;5059369;28;28468;-90
2022/04/13 03:47:57;;;;;;;;;;;;;;;;;;5054485;28;29406;-89
2022/04/13 03:50:22;;;;;;;;;;;;;;;;;;5053802;28;28255;-89
2022/04/13 03:52:47;;;;;;;;;;;;;;;;;;5054479;28;28483;-89
2022/04/13 03:55:12;;;;;;;;;;;;;;;;;;5067945;28;28827;-90
2022/04/13 03:57:37;;;;;;;;;;;;;;;;;;5070210;28;29945;-89
2022/04/13 04:00:03;;;;;;;;;;;;;;;;;;5055437;28;28430;-89
2022/04/13 04:02:28;;;;;;;;;;;;;;;;;;5069561;28;28459;-89
2022/04/13 04:04:53;;;;;;;;;;;;;;;;;;5066761;28;28481;-89
2022/04/13 04:07:18;;;;;;;;;;;;;;;;;;5041834;27;28463;-89
2022/04/13 04:09:43;;;;;;;;;;;;;;;;;;5073780;28;28394;-89
2022/04/13 04:12:08;;;;;;;;;;;;;;;;;;5074191;28;28372;-89
2022/04/13 04:14:33;;;;;;;;;;;;;;;;;;5073700;28;28442;-90
2022/04/13 04:16:59;;;;;;;;;;;;;;;;;;5073375;28;29245;-90
2022/04/13 04:19:24;;;;;;;;;;;;;;;;;;5047725;28;29317;-90
2022/04/13 04:21:49;;;;;;;;;;;;;;;;;;5053816;28;28456;-90
2022/04/13 04:24:14;;;;;;;;;;;;;;;;;;5066257;28;28437;-89
2022/04/13 04:26:39;;;;;;;;;;;;;;;;;;5073291;28;29403;-90
2022/04/13 04:29:04;;;;;;;;;;;;;;;;;;5063677;28;28424;-90
2022/04/13 04:34:13;;;;;;;;;;;;;;;;;;5053822;28;28314;-90
2022/04/13 04:36:38;;;;;;;;;;;;;;;;;;5070758;28;28462;-90
2022/04/13 04:39:04;;;;;;;;;;;;;;;;;;5073118;28;28395;-90
2022/04/13 04:41:29;;;;;;;;;;;;;;;;;;5072305;28;28547;-89
2022/04/13 04:43:54;;;;;;;;;;;;;;;;;;5064958;28;28362;-90
2022/04/13 04:46:19;;;;;;;;;;;;;;;;;;5073769;28;28504;-89
2022/04/13 04:48:45;;;;;;;;;;;;;;;;;;5072589;28;28445;-90
2022/04/13 04:51:10;;;;;;;;;;;;;;;;;;5073018;28;28468;-89
2022/04/13 04:53:35;;;;;;;;;;;;;;;;;;5073363;28;28475;-89
2022/04/13 04:56:00;;;;;;;;;;;;;;;;;;5068060;28;29152;-90
2022/04/13 04:58:26;;;;;;;;;;;;;;;;;;5073668;28;28318;-89
2022/04/13 05:00:51;;;;;;;;;;;;;;;;;;5073112;28;28303;-89
2022/04/13 05:03:16;;;;;;;;;;;;;;;;;;5071126;28;28246;-89
2022/04/13 05:05:42;;;;;;;;;;;;;;;;;;5067213;27;30078;-88
2022/04/13 05:08:07;;;;;;;;;;;;;;;;;;5075241;28;28303;-89
2022/04/13 05:10:32;;;;;;;;;;;;;;;;;;5070731;28;28468;-89
2022/04/13 05:12:58;;;;;;;;;;;;;;;;;;5071629;28;28533;-89
2022/04/13 05:15:23;;;;;;;;;;;;;;;;;;5072622;28;28538;-89
2022/04/13 05:17:49;;;;;;;;;;;;;;;;;;5052593;28;28446;-89
2022/04/13 05:20:14;;;;;;;;;;;;;;;;;;5054009;27;28298;-85
2022/04/13 05:22:39;;;;;;;;;;;;;;;;;;5052730;27;28369;-90
2022/04/13 05:25:04;;;;;;;;;;;;;;;;;;5053737;27;28623;-86
2022/04/13 05:27:29;;;;;;;;;;;;;;;;;;5052534;27;28261;-86
2022/04/13 05:29:54;;;;;;;;;;;;;;;;;;5083597;27;28375;-86
2022/04/13 05:32:19;;;;;;;;;;;;;;;;;;5071383;27;28665;-86
2022/04/13 05:34:44;;;;;;;;;;;;;;;;;;5092243;28;28845;-87
2022/04/13 05:37:09;;;;;;;;;;;;;;;;;;5093325;28;28460;-87
2022/04/13 05:39:38;;;;;;;;;;;;;;;;;;5091080;28;28499;-87
2022/04/13 05:42:03;;;;;;;;;;;;;;;;;;5088191;28;27959;-87
2022/04/13 05:44:28;;;;;;;;;;;;;;;;;;5079743;28;29070;-86
2022/04/13 05:46:53;;;;;;;;;;;;;;;;;;5067050;28;28534;-86
2022/04/13 05:49:18;;;;;;;;;;;;;;;;;;5072859;28;28421;-88
2022/04/13 05:51:43;;;;;;;;;;;;;;;;;;5074310;28;28535;-88
2022/04/13 05:54:08;;;;;;;;;;;;;;;;;;5075661;28;28337;-88
2022/04/13 05:56:34;;;;;;;;;;;;;;;;;;5077850;28;28411;-88
2022/04/13 05:58:59;;;;;;;;;;;;;;;;;;5085326;28;28395;-88
2022/04/13 06:01:24;;;;;;;;;;;;;;;;;;5071982;28;28399;-88
2022/04/13 06:03:49;;;;;;;;;;;;;;;;;;5083758;28;28545;-87
2022/04/13 06:06:14;;;;;;;;;;;;;;;;;;5069608;28;29443;-88
2022/04/13 06:08:39;;;;;;;;;;;;;;;;;;5092469;28;28387;-88
2022/04/13 06:11:04;;;;;;;;;;;;;;;;;;5091035;28;28266;-87
2022/04/13 06:13:31;;;;;;;;;;;;;;;;;;5088076;28;28157;-86
2022/04/13 06:15:56;;;;;;;;;;;;;;;;;;5071652;28;28707;-86
2022/04/13 06:18:21;;;;;;;;;;;;;;;;;;5072048;28;28394;-86
2022/04/13 06:20:46;;;;;;;;;;;;;;;;;;5072258;28;28289;-86
2022/04/13 06:23:11;;;;;;;;;;;;;;;;;;5083568;28;28550;-86
2022/04/13 06:25:37;;;;;;;;;;;;;;;;;;5091594;28;28521;-86
2022/04/13 06:28:02;;;;;;;;;;;;;;;;;;5081959;28;28467;-88
2022/04/13 06:30:27;;;;;;;;;;;;;;;;;;5072360;28;28514;-88
2022/04/13 06:32:52;;;;;;;;;;;;;;;;;;5072656;28;28262;-88
2022/04/13 06:35:17;;;;;;;;;;;;;;;;;;5064625;28;28267;-88
2022/04/13 06:37:43;;;;;;;;;;;;;;;;;;5072602;28;28576;-87
2022/04/13 06:40:08;;;;;;;;;;;;;;;;;;5078832;28;28307;-88
2022/04/13 06:42:33;;;;;;;;;;;;;;;;;;5092264;28;29361;-88
2022/04/13 06:44:59;;;;;;;;;;;;;;;;;;5090838;28;28513;-88
2022/04/13 06:47:25;;;;;;;;;;;;;;;;;;5079587;28;28594;-88
2022/04/13 06:49:50;;;;;;;;;;;;;;;;;;5087706;28;28436;-86
2022/04/13 06:52:15;;;;;;;;;;;;;;;;;;5090181;28;28514;-86
2022/04/13 06:54:40;;;;;;;;;;;;;;;;;;5086115;28;28464;-87
2022/04/13 06:57:05;;;;;;;;;;;;;;;;;;5071197;28;28389;-87
2022/04/13 06:59:30;;;;;;;;;;;;;;;;;;5071616;28;28589;-89
2022/04/13 07:01:55;;;;;;;;;;;;;;;;;;5130171;27;30700;-88
2022/04/13 07:04:20;;;;;;;;;;;;;;;;;;5177821;27;28510;-86
2022/04/13 07:06:45;;;;;;;;;;;;;;;;;;5177618;27;28418;-84
2022/04/13 07:09:10;;;;;;;;;;;;;;;;;;5177793;27;28497;-89
2022/04/13 07:11:36;;;;;;;;;;;;;;;;;;5103348;27;28641;-85
2022/04/13 07:14:01;;;;;;;;;;;;;;;;;;5073896;28;28542;-90
2022/04/13 07:16:26;;;;;;;;;;;;;;;;;;5165520;27;28549;-86
2022/04/13 07:18:51;;;;;;;;;;;;;;;;;;5181170;27;28495;-86
2022/04/13 07:21:16;;;;;;;;;;;;;;;;;;5180830;27;29719;-86
2022/04/13 07:23:42;;;;;;;;;;;;;;;;;;5180964;27;28561;-85
2022/04/13 07:26:07;;;;;;;;;;;;;;;;;;5162833;27;28592;-85
2022/04/13 07:28:32;;;;;;;;;;;;;;;;;;5092327;28;28568;-85
2022/04/13 07:30:57;;;;;;;;;;;;;;;;;;5094004;28;28441;-85
2022/04/13 07:33:22;;;;;;;;;;;;;;;;;;5092971;28;28571;-87
2022/04/13 07:35:47;;;;;;;;;;;;;;;;;;5093862;28;28557;-84
2022/04/13 07:38:13;;;;;;;;;;;;;;;;;;5092435;28;28366;-82
2022/04/13 07:40:38;;;;;;;;;;;;;;;;;;5092668;28;28752;-82
2022/04/13 07:43:03;;;;;;;;;;;;;;;;;;5094367;28;28521;-87
2022/04/13 07:45:28;;;;;;;;;;;;;;;;;;5086956;28;28423;-82
2022/04/13 07:47:53;;;;;;;;;;;;;;;;;;5091399;28;28526;-82
2022/04/13 07:50:18;;;;;;;;;;;;;;;;;;5078458;27;29161;-82
2022/04/13 07:52:43;;;;;;;;;;;;;;;;;;5092138;27;28318;-81
2022/04/13 07:55:09;;;;;;;;;;;;;;;;;;5088459;27;28543;-81
2022/04/13 07:57:35;;;;;;;;;;;;;;;;;;5057898;27;28264;-83
2022/04/13 08:00:00;;;;;;;;;;;;;;;;;;5056004;28;28593;-85
2022/04/13 08:02:25;;;;;;;;;;;;;;;;;;5070503;27;28469;-83
2022/04/13 08:04:50;;;;;;;;;;;;;;;;;;5055227;28;28908;-89
2022/04/13 08:07:15;;;;;;;;;;;;;;;;;;5063085;27;28457;-87
2022/04/13 08:09:40;;;;;;;;;;;;;;;;;;5075200;27;28477;-86
2022/04/13 08:12:05;;;;;;;;;;;;;;;;;;5073416;28;28228;-85
2022/04/13 08:14:30;;;;;;;;;;;;;;;;;;5073931;28;28247;-85
2022/04/13 08:16:56;;;;;;;;;;;;;;;;;;5074213;28;28440;-92
2022/04/13 08:19:21;;;;;;;;;;;;;;;;;;5055517;27;29879;-87
2022/04/13 08:21:46;;;;;;;;;;;;;;;;;;5073728;28;28461;-89
2022/04/13 08:24:11;;;;;;;;;;;;;;;;;;5073328;28;28236;-89
2022/04/13 08:26:36;;;;;;;;;;;;;;;;;;5073667;28;35790;-88
2022/04/13 08:29:01;;;;;;;;;;;;;;;;;;5073499;28;28303;-86
2022/04/13 08:31:26;;;;;;;;;;;;;;;;;;5073364;28;28298;-88
2022/04/13 08:33:51;;;;;;;;;;;;;;;;;;5128784;27;28232;-86
2022/04/13 08:36:16;;;;;;;;;;;;;;;;;;5179912;27;28338;-92
2022/04/13 08:38:41;;;;;;;;;;;;;;;;;;5180021;27;28285;-90
2022/04/13 08:41:07;;;;;;;;;;;;;;;;;;5161020;27;28289;-90
2022/04/13 08:43:32;;;;;;;;;;;;;;;;;;5179929;27;28312;-90
2022/04/13 08:45:57;;;;;;;;;;;;;;;;;;5161213;27;28327;-91
2022/04/13 08:48:23;;;;;;;;;;;;;;;;;;5179841;27;28285;-91
2022/04/13 08:50:48;;;;;;;;;;;;;;;;;;5161091;27;29438;-91
2022/04/13 08:53:13;;;;;;;;;;;;;;;;;;5180050;27;28287;-90
2022/04/13 08:55:38;;;;;;;;;;;;;;;;;;5179680;27;28296;-90
2022/04/13 08:58:03;;;;;;;;;;;;;;;;;;5130747;27;31122;-90
2022/04/13 09:00:28;;;;;;;;;;;;;;;;;;5077229;28;28229;-90
2022/04/13 09:02:54;;;;;;;;;;;;;;;;;;5073194;28;28717;-89
2022/04/13 09:05:19;;;;;;;;;;;;;;;;;;5053707;28;28545;-89
2022/04/13 09:07:44;;;;;;;;;;;;;;;;;;5064521;28;29556;-90
2022/04/13 09:10:10;;;;;;;;;;;;;;;;;;5073102;28;28437;-89
2022/04/13 09:12:35;;;;;;;;;;;;;;;;;;5072576;28;28506;-89
2022/04/13 09:15:00;;;;;;;;;;;;;;;;;;5072569;28;28572;-89
2022/04/13 09:17:25;;;;;;;;;;;;;;;;;;5083137;28;28483;-89
2022/04/13 09:19:50;;;;;;;;;;;;;;;;;;5092673;28;28498;-89
2022/04/13 09:22:15;;;;;;;;;;;;;;;;;;5092724;28;28451;-89
2022/04/13 09:24:40;;;;;;;;;;;;;;;;;;5092736;28;28506;-90
2022/04/13 09:27:06;;;;;;;;;;;;;;;;;;5092587;28;28464;-90
2022/04/13 09:29:31;;;;;;;;;;;;;;;;;;5074367;28;28413;-89
2022/04/13 09:31:56;;;;;;;;;;;;;;;;;;5073939;28;28533;-89
2022/04/13 09:34:21;;;;;;;;;;;;;;;;;;5092766;28;28446;-89
2022/04/13 09:36:46;;;;;;;;;;;;;;;;;;5091646;28;28483;-89
2022/04/13 09:39:11;;;;;;;;;;;;;;;;;;5092436;28;28520;-88
2022/04/13 09:41:36;;;;;;;;;;;;;;;;;;5092168;28;28465;-89
2022/04/13 09:44:01;;;;;;;;;;;;;;;;;;5092611;28;28441;-88
2022/04/13 09:46:27;;;;;;;;;;;;;;;;;;5092460;28;29438;-89
2022/04/13 09:48:52;;;;;;;;;;;;;;;;;;5092215;28;28552;-89
2022/04/13 09:51:17;;;;;;;;;;;;;;;;;;5092421;28;28420;-89
2022/04/13 09:53:43;;;;;;;;;;;;;;;;;;5087786;28;28441;-89
2022/04/13 09:56:08;;;;;;;;;;;;;;;;;;5071871;28;28576;-89
2022/04/13 09:58:33;;;;;;;;;;;;;;;;;;5071900;28;28314;-89
2022/04/13 10:01:03;;;;;;;;;;;;;;;;;;5077019;28;28470;-89
2022/04/13 10:03:28;;;;;;;;;;;;;;;;;;5071956;28;28377;-89
2022/04/13 10:05:53;;;;;;;;;;;;;;;;;;5073182;28;28488;-90
2022/04/13 10:08:22;;;;;;;;;;;;;;;;;;5071782;28;28438;-90
2022/04/13 10:10:47;;;;;;;;;;;;;;;;;;5076342;27;28448;-90
2022/04/13 10:13:12;;;;;;;;;;;;;;;;;;5069808;28;28472;-89
2022/04/13 10:15:37;;;;;;;;;;;;;;;;;;5071614;28;28565;-86
2022/04/13 10:18:05;;;;;;;;;;;;;;;;;;5071204;28;28425;-89
2022/04/13 10:20:30;;;;;;;;;;;;;;;;;;5070918;28;28391;-87
2022/04/13 10:22:55;;;;;;;;;;;;;;;;;;5071591;28;28385;-83
2022/04/13 10:25:27;;;;;;;;;;;;;;;;;;5071369;28;28413;-85
2022/04/13 10:27:52;;;;;;;;;;;;;;;;;;5071219;28;28590;-86
2022/04/13 10:30:17;;;;;;;;;;;;;;;;;;5071525;28;28421;-84
2022/04/13 10:32:42;;;;;;;;;;;;;;;;;;5071304;28;28853;-85
2022/04/13 10:35:07;;;;;;;;;;;;;;;;;;5072243;28;29132;-81
2022/04/13 10:37:32;;;;;;;;;;;;;;;;;;5070887;28;28391;-80
2022/04/13 10:40:00;;;;;;;;;;;;;;;;;;5071219;28;28450;-88
2022/04/13 10:42:25;;;;;;;;;;;;;;;;;;5053081;28;28397;-85
2022/04/13 10:44:53;;;;;;;;;;;;;;;;;;5071369;28;28299;-86
2022/04/13 10:47:18;;;;;;;;;;;;;;;;;;5071477;28;28345;-83
2022/04/13 10:49:43;;;;;;;;;;;;;;;;;;5074319;28;28421;-84
2022/04/13 10:52:08;;;;;;;;;;;;;;;;;;5074270;28;28446;-85
2022/04/13 10:54:33;;;;;;;;;;;;;;;;;;5073857;28;28504;-85
2022/04/13 10:56:58;;;;;;;;;;;;;;;;;;5089489;28;28401;-84
2022/04/13 10:59:24;;;;;;;;;;;;;;;;;;5094520;28;28492;-86
2022/04/13 11:01:50;;;;;;;;;;;;;;;;;;5094329;28;28463;-85
2022/04/13 11:04:15;;;;;;;;;;;;;;;;;;5094007;28;28452;-83
2022/04/13 11:06:40;;;;;;;;;;;;;;;;;;5094106;27;28439;-85
2022/04/13 11:09:06;;;;;;;;;;;;;;;;;;5092575;28;28531;-85
2022/04/13 11:11:31;;;;;;;;;;;;;;;;;;5094008;28;28512;-85
2022/04/13 11:13:56;;;;;;;;;;;;;;;;;;5082193;28;29345;-85
2022/04/13 11:16:22;;;;;;;;;;;;;;;;;;5087144;28;28756;-85
2022/04/13 11:18:47;;;;;;;;;;;;;;;;;;5076671;28;28401;-87
2022/04/13 11:21:12;;;;;;;;;;;;;;;;;;5079012;28;28500;-85
2022/04/13 11:23:37;;;;;;;;;;;;;;;;;;5093460;28;28451;-86
2022/04/13 11:26:02;;;;;;;;;;;;;;;;;;5081264;28;28526;-86
2022/04/13 11:28:27;;;;;;;;;;;;;;;;;;5081624;28;28439;-87
2022/04/13 11:30:52;;;;;;;;;;;;;;;;;;5073818;28;28325;-86
2022/04/13 11:33:17;;;;;;;;;;;;;;;;;;5075567;28;29628;-86
2022/04/13 11:35:42;;;;;;;;;;;;;;;;;;5093917;28;28517;-87
2022/04/13 11:38:10;;;;;;;;;;;;;;;;;;5093801;28;28358;-86
2022/04/13 11:40:35;;;;;;;;;;;;;;;;;;5094344;28;28471;-86
2022/04/13 11:43:01;;;;;;;;;;;;;;;;;;5089471;28;28539;-86
2022/04/13 11:45:26;;;;;;;;;;;;;;;;;;5081049;28;28390;-93
2022/04/13 11:47:51;;;;;;;;;;;;;;;;;;5061440;28;28337;-92
2022/04/13 11:50:19;;;;;;;;;;;;;;;;;;5074044;28;28381;-89
2022/04/13 11:52:46;;;;;;;;;;;;;;;;;;5073564;28;28607;-82
2022/04/13 11:55:11;;;;;;;;;;;;;;;;;;5073941;28;28378;-86
2022/04/13 11:57:36;;;;;;;;;;;;;;;;;;5055818;28;28504;-87
2022/04/13 12:00:01;;;;;;;;;;;;;;;;;;5059587;28;28473;-88
2022/04/13 12:02:27;;;;;;;;;;;;;;;;;;5062119;27;28879;-88
2022/04/13 12:04:52;;;;;;;;;;;;;;;;;;5061969;28;28752;-91
2022/04/13 12:07:17;;;;;;;;;;;;;;;;;;5074847;28;28559;-89
2022/04/13 12:09:45;;;;;;;;;;;;;;;;;;5062638;28;28438;-92
2022/04/13 12:12:12;;;;;;;;;;;;;;;;;;5069002;28;29972;-96
2022/04/13 12:14:40;;;;;;;;;;;;;;;;;;5069015;28;29018;-90
2022/04/13 12:17:05;;;;;;;;;;;;;;;;;;5072721;28;28506;-89
2022/04/13 12:19:30;;;;;;;;;;;;;;;;;;5072400;28;28611;-89
2022/04/13 12:21:55;;;;;;;;;;;;;;;;;;5070821;28;29504;-84
2022/04/13 12:24:20;;;;;;;;;;;;;;;;;;5071922;28;28496;-83
2022/04/13 12:26:46;;;;;;;;;;;;;;;;;;5072685;28;28563;-83
2022/04/13 12:29:11;;;;;;;;;;;;;;;;;;5072740;28;28498;-83
2022/04/13 12:31:36;;;;;;;;;;;;;;;;;;5072905;27;28564;-83
2022/04/13 12:34:01;;;;;;;;;;;;;;;;;;5072502;28;28432;-82
2022/04/13 12:36:26;;;;;;;;;;;;;;;;;;5109863;27;28593;-82
2022/04/13 12:38:54;;;;;;;;;;;;;;;;;;5129980;27;28492;-91
2022/04/13 12:41:20;;;;;;;;;;;;;;;;;;5091401;27;28735;-88
2022/04/13 12:43:45;;;;;;;;;;;;;;;;;;5072708;27;28342;-88
2022/04/13 12:46:10;;;;;;;;;;;;;;;;;;5061128;28;28735;-90
2022/04/13 12:48:36;;;;;;;;;;;;;;;;;;5073291;28;28312;-91
2022/04/13 12:51:01;;;;;;;;;;;;;;;;;;5072829;28;28397;-89
2022/04/13 12:53:26;;;;;;;;;;;;;;;;;;5049948;28;28328;-89
2022/04/13 12:55:51;;;;;;;;;;;;;;;;;;5066200;28;28372;-91
2022/04/13 12:58:16;;;;;;;;;;;;;;;;;;5072651;28;28468;-90
2022/04/13 13:00:41;;;;;;;;;;;;;;;;;;5072339;28;29051;-89
2022/04/13 13:03:06;;;;;;;;;;;;;;;;;;5072210;28;28483;-90
2022/04/13 13:05:31;;;;;;;;;;;;;;;;;;5072489;27;28389;-89
2022/04/13 13:07:57;;;;;;;;;;;;;;;;;;5072270;28;28401;-89
2022/04/13 13:10:22;;;;;;;;;;;;;;;;;;5083829;28;28539;-90
2022/04/13 13:12:47;;;;;;;;;;;;;;;;;;5073314;28;28389;-89
2022/04/13 13:15:12;;;;;;;;;;;;;;;;;;5073815;28;28512;-90
2022/04/13 13:17:39;;;;;;;;;;;;;;;;;;5071958;28;28650;-90
2022/04/13 13:20:04;;;;;;;;;;;;;;;;;;5074234;28;28408;-90
2022/04/13 13:22:35;;;;;;;;;;;;;;;;;;5071999;28;28417;-89
2022/04/13 13:25:05;;;;;;;;;;;;;;;;;;5075607;28;29805;-88
2022/04/13 13:27:31;;;;;;;;;;;;;;;;;;5071900;28;28406;-90
2022/04/13 13:29:56;;;;;;;;;;;;;;;;;;5072075;28;29354;-90
2022/04/13 13:32:21;;;;;;;;;;;;;;;;;;5083636;27;28511;-90
2022/04/13 13:34:46;;;;;;;;;;;;;;;;;;5084889;28;27908;-91
2022/04/13 13:37:11;;;;;;;;;;;;;;;;;;5084016;28;27899;-89
2022/04/13 13:39:37;;;;;;;;;;;;;;;;;;5086305;28;28635;-92
2022/04/13 13:42:02;;;;;;;;;;;;;;;;;;5078116;28;28957;-91
2022/04/13 13:44:27;;;;;;;;;;;;;;;;;;5088289;28;28447;-91
2022/04/13 13:46:52;;;;;;;;;;;;;;;;;;5076862;28;28418;-90
2022/04/13 13:49:18;;;;;;;;;;;;;;;;;;5072128;28;29289;-90
2022/04/13 13:51:43;;;;;;;;;;;;;;;;;;5073622;28;28541;-93
2022/04/13 13:54:08;;;;;;;;;;;;;;;;;;5077086;28;28436;-91
2022/04/13 13:56:33;;;;;;;;;;;;;;;;;;5073850;28;28699;-91
2022/04/13 13:58:59;;;;;;;;;;;;;;;;;;5069030;28;30981;-91
2022/04/13 14:01:26;;;;;;;;;;;;;;;;;;5075946;28;27786;-91
2022/04/13 14:03:51;;;;;;;;;;;;;;;;;;5058880;28;28544;-90
2022/04/13 14:06:17;;;;;;;;;;;;;;;;;;5071826;27;28483;-90
2022/04/13 14:08:42;;;;;;;;;;;;;;;;;;5089696;28;28655;-91
2022/04/13 14:11:10;;;;;;;;;;;;;;;;;;5090616;28;28486;-90
2022/04/13 14:13:35;;;;;;;;;;;;;;;;;;5092438;28;27798;-90
2022/04/13 14:16:00;;;;;;;;;;;;;;;;;;5092251;28;28383;-90
2022/04/13 14:18:25;;;;;;;;;;;;;;;;;;5085590;28;28430;-90
2022/04/13 14:20:50;;;;;;;;;;;;;;;;;;5053576;28;27862;-90
2022/04/13 14:23:15;;;;;;;;;;;;;;;;;;5074793;28;27847;-90
2022/04/13 14:25:41;;;;;;;;;;;;;;;;;;5067926;28;28469;-83
2022/04/13 14:28:06;;;;;;;;;;;;;;;;;;5076527;28;28720;-83
2022/04/13 14:30:31;;;;;;;;;;;;;;;;;;5094824;28;28295;-83
2022/04/13 14:32:56;;;;;;;;;;;;;;;;;;5093664;28;28444;-83
2022/04/13 14:35:21;;;;;;;;;;;;;;;;;;5093164;28;28238;-83
2022/04/13 14:37:48;;;;;;;;;;;;;;;;;;5091411;28;28361;-83
2022/04/13 14:40:13;;;;;;;;;;;;;;;;;;5091926;28;28558;-83
2022/04/13 14:42:39;;;;;;;;;;;;;;;;;;5084800;28;28458;-82
2022/04/13 14:45:04;;;;;;;;;;;;;;;;;;5080832;28;28515;-83
2022/04/13 14:47:29;;;;;;;;;;;;;;;;;;5074372;28;28404;-83
2022/04/13 14:49:54;;;;;;;;;;;;;;;;;;5089585;28;28532;-82
2022/04/13 14:52:19;;;;;;;;;;;;;;;;;;5094603;28;28468;-83
2022/04/13 14:54:45;;;;;;;;;;;;;;;;;;5080339;28;28487;-82
2022/04/13 14:57:10;;;;;;;;;;;;;;;;;;5090763;28;29176;-83
2022/04/13 14:59:35;;;;;;;;;;;;;;;;;;5089740;28;28460;-83
2022/04/13 15:02:02;;;;;;;;;;;;;;;;;;5076301;28;28415;-83
2022/04/13 15:04:27;;;;;;;;;;;;;;;;;;5076698;28;28302;-84
2022/04/13 15:06:52;;;;;;;;;;;;;;;;;;5074003;27;29197;-83
2022/04/13 15:09:17;;;;;;;;;;;;;;;;;;5087021;28;28463;-84
2022/04/13 15:11:42;;;;;;;;;;;;;;;;;;5094216;28;28313;-83
2022/04/13 15:14:07;;;;;;;;;;;;;;;;;;5094401;28;28505;-83
2022/04/13 15:16:34;;;;;;;;;;;;;;;;;;5093096;28;28452;-86
2022/04/13 15:18:59;;;;;;;;;;;;;;;;;;5078416;28;28587;-83
2022/04/13 15:21:24;;;;;;;;;;;;;;;;;;5069671;28;28463;-84
2022/04/13 15:23:50;;;;;;;;;;;;;;;;;;5063048;27;27910;-81
2022/04/13 15:26:17;;;;;;;;;;;;;;;;;;5093756;28;28491;-81
2022/04/13 15:28:42;;;;;;;;;;;;;;;;;;5094148;28;28398;-81
2022/04/13 15:31:07;;;;;;;;;;;;;;;;;;5094175;28;28491;-82
2022/04/13 15:33:32;;;;;;;;;;;;;;;;;;5092215;28;28401;-84
2022/04/13 15:35:57;;;;;;;;;;;;;;;;;;5061957;28;28514;-83
2022/04/13 15:38:22;;;;;;;;;;;;;;;;;;5067542;28;28506;-83
2022/04/13 15:40:49;;;;;;;;;;;;;;;;;;5074160;28;28526;-84
2022/04/13 15:43:14;;;;;;;;;;;;;;;;;;5092587;28;28364;-84
2022/04/13 15:45:39;;;;;;;;;;;;;;;;;;5076770;28;28502;-88
2022/04/13 15:48:04;;;;;;;;;;;;;;;;;;5073741;28;28368;-82
2022/04/13 15:50:29;;;;;;;;;;;;;;;;;;5073041;28;28561;-84
2022/04/13 15:52:55;;;;;;;;;;;;;;;;;;5073718;28;28464;-86
2022/04/13 15:55:23;;;;;;;;;;;;;;;;;;5073267;28;28453;-84
2022/04/13 15:57:50;;;;;;;;;;;;;;;;;;5073409;28;28307;-85
2022/04/13 16:00:15;;;;;;;;;;;;;;;;;;5073495;28;27892;-85
2022/04/13 16:02:44;;;;;;;;;;;;;;;;;;5073288;28;28454;-85
2022/04/13 16:05:09;;;;;;;;;;;;;;;;;;5073081;27;29279;-85
2022/04/13 16:07:34;;;;;;;;;;;;;;;;;;5073377;28;28450;-86
2022/04/13 16:09:59;;;;;;;;;;;;;;;;;;5071587;28;28668;-85
2022/04/13 16:12:24;;;;;;;;;;;;;;;;;;5046007;28;28279;-85
2022/04/13 16:14:49;;;;;;;;;;;;;;;;;;5052848;27;28480;-85
2022/04/13 16:17:15;;;;;;;;;;;;;;;;;;5052971;27;28246;-85
2022/04/13 16:19:40;;;;;;;;;;;;;;;;;;5053135;28;28920;-85
2022/04/13 16:22:05;;;;;;;;;;;;;;;;;;5053082;27;28382;-85
2022/04/13 16:24:30;;;;;;;;;;;;;;;;;;5053041;27;29202;-85
2022/04/13 16:26:55;;;;;;;;;;;;;;;;;;5052712;27;28351;-85
2022/04/13 16:29:20;;;;;;;;;;;;;;;;;;5052876;27;28381;-83
2022/04/13 16:31:45;;;;;;;;;;;;;;;;;;5053231;27;28414;-83
2022/04/13 16:34:11;;;;;;;;;;;;;;;;;;5052864;27;29012;-86